sensor_id;sensor_type;location;lat;lon;timestamp;pressure;altitude;pressure_sealevel;temperature;humidity
74403;BME280;62837;51.082;13.744;2022-12-17T00:01:09;100849.38;;;-2.53;73.25
74403;BME280;62837;51.082;13.744;2022-12-17T00:03:57;100853.27;;;-2.49;74.10
74403;BME280;62837;51.082;13.744;2022-12-17T00:06:46;100863.44;;;-2.47;73.97
74403;BME280;62837;51.082;13.744;2022-12-17T00:09:34;100861.79;;;-2.44;73.67
74403;BME280;62837;51.082;13.744;2022-12-17T00:12:24;100863.68;;;-2.44;73.52
74403;BME280;62837;51.082;13.744;2022-12-17T00:15:12;100863.91;;;-2.46;73.48
74403;BME280;62837;51.082;13.744;2022-12-17T00:18:05;100860.64;;;-2.51;73.81
74403;BME280;62837;51.082;13.744;2022-12-17T00:20:55;100859.91;;;-2.54;74.25
74403;BME280;62837;51.082;13.744;2022-12-17T00:23:44;100863.84;;;-2.57;74.05
74403;BME280;62837;51.082;13.744;2022-12-17T00:26:47;100859.08;;;-2.63;74.01
74403;BME280;62837;51.082;13.744;2022-12-17T00:29:36;100865.48;;;-2.61;74.58
74403;BME280;62837;51.082;13.744;2022-12-17T00:32:24;100867.45;;;-2.53;75.25
74403;BME280;62837;51.082;13.744;2022-12-17T00:35:13;100871.89;;;-2.47;74.43
74403;BME280;62837;51.082;13.744;2022-12-17T00:38:01;100872.83;;;-2.48;74.12
74403;BME280;62837;51.082;13.744;2022-12-17T00:40:52;100870.90;;;-2.50;74.39
74403;BME280;62837;51.082;13.744;2022-12-17T00:43:41;100882.55;;;-2.49;74.21
74403;BME280;62837;51.082;13.744;2022-12-17T00:46:29;100885.52;;;-2.47;74.84
74403;BME280;62837;51.082;13.744;2022-12-17T00:49:18;100886.61;;;-2.45;74.12
74403;BME280;62837;51.082;13.744;2022-12-17T00:52:06;100893.13;;;-2.49;74.31
74403;BME280;62837;51.082;13.744;2022-12-17T00:54:55;100900.16;;;-2.50;74.87
74403;BME280;62837;51.082;13.744;2022-12-17T00:57:43;100904.84;;;-2.46;74.25
74403;BME280;62837;51.082;13.744;2022-12-17T01:00:32;100907.98;;;-2.41;74.73
74403;BME280;62837;51.082;13.744;2022-12-17T01:03:20;100910.73;;;-2.38;74.32
74403;BME280;62837;51.082;13.744;2022-12-17T01:06:09;100911.23;;;-2.41;74.14
74403;BME280;62837;51.082;13.744;2022-12-17T01:08:57;100915.27;;;-2.45;74.18
74403;BME280;62837;51.082;13.744;2022-12-17T01:11:46;100917.89;;;-2.49;74.27
74403;BME280;62837;51.082;13.744;2022-12-17T01:14:34;100917.80;;;-2.52;74.23
74403;BME280;62837;51.082;13.744;2022-12-17T01:17:23;100917.83;;;-2.55;74.62
74403;BME280;62837;51.082;13.744;2022-12-17T01:20:12;100918.55;;;-2.55;74.55
74403;BME280;62837;51.082;13.744;2022-12-17T01:23:00;100922.97;;;-2.50;74.42
74403;BME280;62837;51.082;13.744;2022-12-17T01:25:54;100928.18;;;-2.45;74.18
74403;BME280;62837;51.082;13.744;2022-12-17T01:28:43;100927.16;;;-2.45;74.56
74403;BME280;62837;51.082;13.744;2022-12-17T01:31:31;100929.85;;;-2.44;74.58
74403;BME280;62837;51.082;13.744;2022-12-17T01:34:20;100938.76;;;-2.41;74.40
74403;BME280;62837;51.082;13.744;2022-12-17T01:37:08;100940.64;;;-2.39;74.39
74403;BME280;62837;51.082;13.744;2022-12-17T01:39:57;100942.81;;;-2.43;74.51
74403;BME280;62837;51.082;13.744;2022-12-17T01:42:46;100945.45;;;-2.45;74.70
74403;BME280;62837;51.082;13.744;2022-12-17T01:45:39;100945.39;;;-2.46;74.63
74403;BME280;62837;51.082;13.744;2022-12-17T01:48:33;100941.98;;;-2.48;74.88
74403;BME280;62837;51.082;13.744;2022-12-17T01:51:24;100940.39;;;-2.43;74.50
74403;BME280;62837;51.082;13.744;2022-12-17T01:54:13;100943.15;;;-2.37;74.37
74403;BME280;62837;51.082;13.744;2022-12-17T01:57:04;100949.17;;;-2.30;74.43
74403;BME280;62837;51.082;13.744;2022-12-17T01:59:57;100951.73;;;-2.27;74.36
74403;BME280;62837;51.082;13.744;2022-12-17T02:02:47;100954.75;;;-2.23;74.91
74403;BME280;62837;51.082;13.744;2022-12-17T02:05:41;100952.58;;;-2.20;75.19
74403;BME280;62837;51.082;13.744;2022-12-17T02:08:36;100957.45;;;-2.20;74.48
74403;BME280;62837;51.082;13.744;2022-12-17T02:11:34;100949.89;;;-2.25;74.78
74403;BME280;62837;51.082;13.744;2022-12-17T02:14:30;100958.62;;;-2.23;74.88
74403;BME280;62837;51.082;13.744;2022-12-17T02:17:23;100957.42;;;-2.21;75.00
74403;BME280;62837;51.082;13.744;2022-12-17T02:20:21;100960.38;;;-2.21;74.41
74403;BME280;62837;51.082;13.744;2022-12-17T02:23:21;100958.08;;;-2.26;74.23
74403;BME280;62837;51.082;13.744;2022-12-17T02:26:36;100962.98;;;-2.28;74.44
74403;BME280;62837;51.082;13.744;2022-12-17T02:29:28;100961.91;;;-2.26;74.33
74403;BME280;62837;51.082;13.744;2022-12-17T02:32:19;100962.64;;;-2.28;74.57
74403;BME280;62837;51.082;13.744;2022-12-17T02:35:14;100957.08;;;-2.30;74.09
74403;BME280;62837;51.082;13.744;2022-12-17T02:38:14;100959.89;;;-2.34;75.08
74403;BME280;62837;51.082;13.744;2022-12-17T02:41:08;100962.15;;;-2.35;75.23
74403;BME280;62837;51.082;13.744;2022-12-17T02:43:59;100963.73;;;-2.38;74.85
74403;BME280;62837;51.082;13.744;2022-12-17T02:46:51;100963.82;;;-2.43;74.59
74403;BME280;62837;51.082;13.744;2022-12-17T02:49:41;100969.61;;;-2.44;74.94
74403;BME280;62837;51.082;13.744;2022-12-17T02:52:30;100970.48;;;-2.46;74.72
74403;BME280;62837;51.082;13.744;2022-12-17T02:55:21;100972.17;;;-2.41;75.21
74403;BME280;62837;51.082;13.744;2022-12-17T02:58:10;100976.23;;;-2.37;75.35
74403;BME280;62837;51.082;13.744;2022-12-17T03:00:58;100979.17;;;-2.35;75.36
74403;BME280;62837;51.082;13.744;2022-12-17T03:03:47;100978.94;;;-2.35;75.08
74403;BME280;62837;51.082;13.744;2022-12-17T03:06:35;100979.02;;;-2.42;74.53
74403;BME280;62837;51.082;13.744;2022-12-17T03:09:24;100980.66;;;-2.47;75.04
74403;BME280;62837;51.082;13.744;2022-12-17T03:12:12;100982.30;;;-2.51;75.17
74403;BME280;62837;51.082;13.744;2022-12-17T03:15:00;100985.55;;;-2.52;75.46
74403;BME280;62837;51.082;13.744;2022-12-17T03:17:49;100983.98;;;-2.58;75.20
74403;BME280;62837;51.082;13.744;2022-12-17T03:20:37;100990.70;;;-2.57;75.20
74403;BME280;62837;51.082;13.744;2022-12-17T03:23:40;100996.89;;;-2.56;75.55
74403;BME280;62837;51.082;13.744;2022-12-17T03:26:29;100995.45;;;-2.51;75.37
74403;BME280;62837;51.082;13.744;2022-12-17T03:29:18;100995.29;;;-2.48;75.33
74403;BME280;62837;51.082;13.744;2022-12-17T03:32:06;100998.38;;;-2.45;74.90
74403;BME280;62837;51.082;13.744;2022-12-17T03:34:55;100995.79;;;-2.42;74.92
74403;BME280;62837;51.082;13.744;2022-12-17T03:37:43;101002.39;;;-2.42;75.56
74403;BME280;62837;51.082;13.744;2022-12-17T03:40:32;101004.19;;;-2.39;75.64
74403;BME280;62837;51.082;13.744;2022-12-17T03:43:20;101004.20;;;-2.37;75.44
74403;BME280;62837;51.082;13.744;2022-12-17T03:46:09;101002.73;;;-2.37;75.34
74403;BME280;62837;51.082;13.744;2022-12-17T03:48:57;101000.95;;;-2.39;75.34
74403;BME280;62837;51.082;13.744;2022-12-17T03:51:45;101002.81;;;-2.38;75.51
74403;BME280;62837;51.082;13.744;2022-12-17T03:54:34;101004.50;;;-2.35;75.59
74403;BME280;62837;51.082;13.744;2022-12-17T03:57:22;101006.08;;;-2.35;75.55
74403;BME280;62837;51.082;13.744;2022-12-17T04:00:13;101008.67;;;-2.35;75.26
74403;BME280;62837;51.082;13.744;2022-12-17T04:03:01;101014.72;;;-2.38;75.78
74403;BME280;62837;51.082;13.744;2022-12-17T04:05:50;101013.31;;;-2.33;75.75
74403;BME280;62837;51.082;13.744;2022-12-17T04:08:38;101013.24;;;-2.29;75.70
74403;BME280;62837;51.082;13.744;2022-12-17T04:11:41;101020.83;;;-2.26;75.61
74403;BME280;62837;51.082;13.744;2022-12-17T04:14:29;101022.25;;;-2.25;75.30
74403;BME280;62837;51.082;13.744;2022-12-17T04:17:18;101021.17;;;-2.25;75.41
74403;BME280;62837;51.082;13.744;2022-12-17T04:20:08;101025.91;;;-2.20;75.74
74403;BME280;62837;51.082;13.744;2022-12-17T04:22:56;101037.24;;;-2.19;75.74
74403;BME280;62837;51.082;13.744;2022-12-17T04:25:45;101041.36;;;-2.19;75.67
74403;BME280;62837;51.082;13.744;2022-12-17T04:28:33;101045.20;;;-2.21;75.37
74403;BME280;62837;51.082;13.744;2022-12-17T04:31:22;101050.83;;;-2.25;75.54
74403;BME280;62837;51.082;13.744;2022-12-17T04:34:10;101054.68;;;-2.29;75.39
74403;BME280;62837;51.082;13.744;2022-12-17T04:36:59;101055.73;;;-2.34;75.32
74403;BME280;62837;51.082;13.744;2022-12-17T04:39:47;101055.77;;;-2.31;75.47
74403;BME280;62837;51.082;13.744;2022-12-17T04:42:36;101055.48;;;-2.23;75.53
74403;BME280;62837;51.082;13.744;2022-12-17T04:45:24;101059.05;;;-2.18;75.05
74403;BME280;62837;51.082;13.744;2022-12-17T04:48:12;101059.52;;;-2.17;75.24
74403;BME280;62837;51.082;13.744;2022-12-17T04:51:01;101063.25;;;-2.15;75.35
74403;BME280;62837;51.082;13.744;2022-12-17T04:53:49;101062.85;;;-2.18;75.33
74403;BME280;62837;51.082;13.744;2022-12-17T04:56:46;101061.84;;;-2.19;75.31
74403;BME280;62837;51.082;13.744;2022-12-17T04:59:34;101062.09;;;-2.23;75.16
74403;BME280;62837;51.082;13.744;2022-12-17T05:02:22;101061.30;;;-2.25;75.48
74403;BME280;62837;51.082;13.744;2022-12-17T05:05:11;101063.77;;;-2.27;75.77
74403;BME280;62837;51.082;13.744;2022-12-17T05:08:00;101069.14;;;-2.25;75.35
74403;BME280;62837;51.082;13.744;2022-12-17T05:10:48;101077.02;;;-2.23;75.77
74403;BME280;62837;51.082;13.744;2022-12-17T05:13:37;101074.80;;;-2.21;75.86
74403;BME280;62837;51.082;13.744;2022-12-17T05:16:25;101076.64;;;-2.16;75.47
74403;BME280;62837;51.082;13.744;2022-12-17T05:19:13;101084.47;;;-2.11;75.42
74403;BME280;62837;51.082;13.744;2022-12-17T05:22:01;101087.71;;;-2.05;75.54
74403;BME280;62837;51.082;13.744;2022-12-17T05:24:50;101089.80;;;-1.99;74.94
74403;BME280;62837;51.082;13.744;2022-12-17T05:27:40;101089.95;;;-1.95;74.73
74403;BME280;62837;51.082;13.744;2022-12-17T05:30:28;101097.00;;;-1.94;74.91
74403;BME280;62837;51.082;13.744;2022-12-17T05:33:17;101105.25;;;-1.92;75.02
74403;BME280;62837;51.082;13.744;2022-12-17T05:36:07;101112.87;;;-1.92;74.75
74403;BME280;62837;51.082;13.744;2022-12-17T05:39:02;101116.92;;;-1.91;74.94
74403;BME280;62837;51.082;13.744;2022-12-17T05:41:50;101117.92;;;-1.92;74.80
74403;BME280;62837;51.082;13.744;2022-12-17T05:44:39;101121.45;;;-1.94;74.40
74403;BME280;62837;51.082;13.744;2022-12-17T05:47:27;101123.52;;;-1.97;74.46
74403;BME280;62837;51.082;13.744;2022-12-17T05:50:16;101122.16;;;-2.03;74.73
74403;BME280;62837;51.082;13.744;2022-12-17T05:53:05;101125.84;;;-2.02;74.86
74403;BME280;62837;51.082;13.744;2022-12-17T05:55:54;101130.86;;;-1.98;75.20
74403;BME280;62837;51.082;13.744;2022-12-17T05:58:42;101131.77;;;-1.93;74.72
74403;BME280;62837;51.082;13.744;2022-12-17T06:01:31;101133.85;;;-1.93;74.88
74403;BME280;62837;51.082;13.744;2022-12-17T06:04:19;101132.20;;;-1.98;74.69
74403;BME280;62837;51.082;13.744;2022-12-17T06:07:08;101130.80;;;-2.01;74.81
74403;BME280;62837;51.082;13.744;2022-12-17T06:09:56;101136.08;;;-2.05;74.60
74403;BME280;62837;51.082;13.744;2022-12-17T06:12:44;101142.92;;;-2.07;74.92
74403;BME280;62837;51.082;13.744;2022-12-17T06:15:41;101143.23;;;-2.07;75.69
74403;BME280;62837;51.082;13.744;2022-12-17T06:18:30;101146.83;;;-2.03;75.46
74403;BME280;62837;51.082;13.744;2022-12-17T06:21:18;101147.16;;;-2.03;75.57
74403;BME280;62837;51.082;13.744;2022-12-17T06:24:07;101150.13;;;-2.04;75.15
74403;BME280;62837;51.082;13.744;2022-12-17T06:26:56;101147.52;;;-2.05;75.24
74403;BME280;62837;51.082;13.744;2022-12-17T06:29:44;101145.74;;;-2.00;75.50
74403;BME280;62837;51.082;13.744;2022-12-17T06:32:32;101149.30;;;-1.96;75.34
74403;BME280;62837;51.082;13.744;2022-12-17T06:35:21;101158.27;;;-1.94;75.27
74403;BME280;62837;51.082;13.744;2022-12-17T06:38:09;101162.55;;;-1.94;74.90
74403;BME280;62837;51.082;13.744;2022-12-17T06:41:00;101165.81;;;-1.98;75.18
74403;BME280;62837;51.082;13.744;2022-12-17T06:43:49;101168.16;;;-1.96;75.47
74403;BME280;62837;51.082;13.744;2022-12-17T06:46:37;101169.50;;;-1.97;74.93
74403;BME280;62837;51.082;13.744;2022-12-17T06:49:25;101172.89;;;-1.98;75.39
74403;BME280;62837;51.082;13.744;2022-12-17T06:52:14;101179.83;;;-2.01;75.34
74403;BME280;62837;51.082;13.744;2022-12-17T06:55:02;101184.91;;;-1.98;75.39
74403;BME280;62837;51.082;13.744;2022-12-17T06:57:57;101189.37;;;-1.93;75.44
74403;BME280;62837;51.082;13.744;2022-12-17T07:00:45;101189.20;;;-1.88;75.54
74403;BME280;62837;51.082;13.744;2022-12-17T07:03:45;101193.39;;;-1.87;75.36
74403;BME280;62837;51.082;13.744;2022-12-17T07:06:34;101199.46;;;-1.85;75.83
74403;BME280;62837;51.082;13.744;2022-12-17T07:09:22;101200.83;;;-1.82;75.78
74403;BME280;62837;51.082;13.744;2022-12-17T07:12:11;101202.01;;;-1.81;75.58
74403;BME280;62837;51.082;13.744;2022-12-17T07:14:59;101211.65;;;-1.81;75.45
74403;BME280;62837;51.082;13.744;2022-12-17T07:17:56;101219.37;;;-1.81;75.61
74403;BME280;62837;51.082;13.744;2022-12-17T07:20:45;101223.46;;;-1.82;75.51
74403;BME280;62837;51.082;13.744;2022-12-17T07:23:34;101224.55;;;-1.86;75.43
74403;BME280;62837;51.082;13.744;2022-12-17T07:26:22;101224.97;;;-1.85;75.52
74403;BME280;62837;51.082;13.744;2022-12-17T07:29:11;101231.91;;;-1.79;75.47
74403;BME280;62837;51.082;13.744;2022-12-17T07:31:59;101233.73;;;-1.70;75.73
74403;BME280;62837;51.082;13.744;2022-12-17T07:34:47;101237.71;;;-1.67;75.37
74403;BME280;62837;51.082;13.744;2022-12-17T07:37:36;101238.64;;;-1.64;75.50
74403;BME280;62837;51.082;13.744;2022-12-17T07:40:24;101238.40;;;-1.65;75.52
74403;BME280;62837;51.082;13.744;2022-12-17T07:43:13;101240.55;;;-1.67;75.19
74403;BME280;62837;51.082;13.744;2022-12-17T07:46:03;101244.83;;;-1.66;76.50
74403;BME280;62837;51.082;13.744;2022-12-17T07:48:51;101243.83;;;-1.65;76.68
74403;BME280;62837;51.082;13.744;2022-12-17T07:51:39;101246.80;;;-1.63;76.41
74403;BME280;62837;51.082;13.744;2022-12-17T07:54:28;101249.11;;;-1.61;77.50
74403;BME280;62837;51.082;13.744;2022-12-17T07:57:16;101253.13;;;-1.53;77.27
74403;BME280;62837;51.082;13.744;2022-12-17T08:00:07;101259.15;;;-1.51;76.32
74403;BME280;62837;51.082;13.744;2022-12-17T08:02:59;101262.48;;;-1.46;76.32
74403;BME280;62837;51.082;13.744;2022-12-17T08:05:48;101269.05;;;-1.44;75.85
74403;BME280;62837;51.082;13.744;2022-12-17T08:08:36;101271.59;;;-1.44;76.09
74403;BME280;62837;51.082;13.744;2022-12-17T08:11:24;101275.55;;;-1.42;76.10
74403;BME280;62837;51.082;13.744;2022-12-17T08:14:13;101283.17;;;-1.41;76.38
74403;BME280;62837;51.082;13.744;2022-12-17T08:17:02;101281.56;;;-1.38;76.84
74403;BME280;62837;51.082;13.744;2022-12-17T08:19:51;101288.18;;;-1.38;76.80
74403;BME280;62837;51.082;13.744;2022-12-17T08:22:39;101288.69;;;-1.37;76.51
74403;BME280;62837;51.082;13.744;2022-12-17T08:25:41;101297.13;;;-1.37;76.47
74403;BME280;62837;51.082;13.744;2022-12-17T08:28:29;101302.25;;;-1.31;76.52
74403;BME280;62837;51.082;13.744;2022-12-17T08:31:21;101307.98;;;-1.24;76.62
74403;BME280;62837;51.082;13.744;2022-12-17T08:34:18;101311.42;;;-1.19;76.12
74403;BME280;62837;51.082;13.744;2022-12-17T08:37:06;101312.56;;;-1.20;76.34
74403;BME280;62837;51.082;13.744;2022-12-17T08:39:55;101310.57;;;-1.19;76.18
74403;BME280;62837;51.082;13.744;2022-12-17T08:42:43;101318.18;;;-1.17;76.53
74403;BME280;62837;51.082;13.744;2022-12-17T08:45:31;101314.71;;;-1.16;76.62
74403;BME280;62837;51.082;13.744;2022-12-17T08:48:20;101318.06;;;-1.15;76.95
74403;BME280;62837;51.082;13.744;2022-12-17T08:51:08;101320.20;;;-1.17;76.60
74403;BME280;62837;51.082;13.744;2022-12-17T08:53:56;101325.34;;;-1.16;77.29
74403;BME280;62837;51.082;13.744;2022-12-17T08:56:44;101327.58;;;-1.15;76.60
74403;BME280;62837;51.082;13.744;2022-12-17T08:59:33;101326.16;;;-1.14;76.79
74403;BME280;62837;51.082;13.744;2022-12-17T09:02:21;101330.48;;;-1.09;77.23
74403;BME280;62837;51.082;13.744;2022-12-17T09:05:10;101333.38;;;-1.01;77.24
74403;BME280;62837;51.082;13.744;2022-12-17T09:08:03;101338.36;;;-0.95;77.08
74403;BME280;62837;51.082;13.744;2022-12-17T09:10:52;101341.23;;;-0.92;77.52
74403;BME280;62837;51.082;13.744;2022-12-17T09:13:40;101345.52;;;-0.90;77.44
74403;BME280;62837;51.082;13.744;2022-12-17T09:16:29;101343.95;;;-0.43;86.66
74403;BME280;62837;51.082;13.744;2022-12-17T09:19:17;101341.61;;;0.61;86.58
74403;BME280;62837;51.082;13.744;2022-12-17T09:22:06;101341.95;;;1.08;79.53
74403;BME280;62837;51.082;13.744;2022-12-17T09:24:54;101339.77;;;1.03;76.25
74403;BME280;62837;51.082;13.744;2022-12-17T09:27:42;101344.77;;;0.78;75.09
74403;BME280;62837;51.082;13.744;2022-12-17T09:30:31;101343.83;;;0.53;74.26
74403;BME280;62837;51.082;13.744;2022-12-17T09:33:19;101343.80;;;0.27;74.02
74403;BME280;62837;51.082;13.744;2022-12-17T09:36:10;101348.13;;;0.06;74.26
74403;BME280;62837;51.082;13.744;2022-12-17T09:38:58;101350.05;;;-0.13;74.71
74403;BME280;62837;51.082;13.744;2022-12-17T09:41:52;101348.25;;;-0.19;75.28
74403;BME280;62837;51.082;13.744;2022-12-17T09:44:49;101352.95;;;-0.28;75.17
74403;BME280;62837;51.082;13.744;2022-12-17T09:47:46;101359.56;;;-0.35;75.31
74403;BME280;62837;51.082;13.744;2022-12-17T09:50:36;101364.92;;;-0.37;75.66
74403;BME280;62837;51.082;13.744;2022-12-17T09:53:41;101355.88;;;-0.36;75.91
74403;BME280;62837;51.082;13.744;2022-12-17T09:56:33;101357.02;;;-0.37;76.10
74403;BME280;62837;51.082;13.744;2022-12-17T09:59:28;101360.78;;;-0.35;76.10
74403;BME280;62837;51.082;13.744;2022-12-17T10:02:18;101363.05;;;-0.34;75.59
74403;BME280;62837;51.082;13.744;2022-12-17T10:05:14;101363.52;;;-0.44;75.68
74403;BME280;62837;51.082;13.744;2022-12-17T10:08:05;101364.34;;;-0.49;76.04
74403;BME280;62837;51.082;13.744;2022-12-17T10:10:55;101366.65;;;-0.45;76.21
74403;BME280;62837;51.082;13.744;2022-12-17T10:13:44;101372.33;;;-0.37;76.04
74403;BME280;62837;51.082;13.744;2022-12-17T10:16:36;101371.44;;;-0.37;76.18
74403;BME280;62837;51.082;13.744;2022-12-17T10:19:33;101380.47;;;-0.32;76.22
74403;BME280;62837;51.082;13.744;2022-12-17T10:22:22;101382.80;;;-0.32;76.21
74403;BME280;62837;51.082;13.744;2022-12-17T10:25:18;101384.63;;;-0.34;76.41
74403;BME280;62837;51.082;13.744;2022-12-17T10:28:09;101388.10;;;-0.36;76.51
74403;BME280;62837;51.082;13.744;2022-12-17T10:30:57;101390.73;;;-0.43;76.17
74403;BME280;62837;51.082;13.744;2022-12-17T10:33:46;101393.16;;;-0.47;76.41
74403;BME280;62837;51.082;13.744;2022-12-17T10:36:34;101392.11;;;-0.51;76.29
74403;BME280;62837;51.082;13.744;2022-12-17T10:39:24;101392.48;;;-0.46;76.65
74403;BME280;62837;51.082;13.744;2022-12-17T10:42:22;101395.48;;;-0.39;76.52
74403;BME280;62837;51.082;13.744;2022-12-17T10:45:23;101399.02;;;-0.32;76.80
74403;BME280;62837;51.082;13.744;2022-12-17T10:48:21;101401.59;;;-0.28;76.85
74403;BME280;62837;51.082;13.744;2022-12-17T10:51:20;101406.17;;;-0.25;76.61
74403;BME280;62837;51.082;13.744;2022-12-17T10:54:28;101409.92;;;-0.23;76.71
74403;BME280;62837;51.082;13.744;2022-12-17T10:57:29;101403.84;;;-0.24;76.88
74403;BME280;62837;51.082;13.744;2022-12-17T11:00:26;101402.18;;;-0.24;76.82
74403;BME280;62837;51.082;13.744;2022-12-17T11:03:31;101404.84;;;-0.23;76.64
74403;BME280;62837;51.082;13.744;2022-12-17T11:06:24;101406.29;;;-0.30;76.46
74403;BME280;62837;51.082;13.744;2022-12-17T11:09:20;101410.27;;;-0.33;76.17
74403;BME280;62837;51.082;13.744;2022-12-17T11:12:11;101405.97;;;-0.37;76.51
74403;BME280;62837;51.082;13.744;2022-12-17T11:15:08;101412.63;;;-0.42;76.49
74403;BME280;62837;51.082;13.744;2022-12-17T11:18:01;101408.48;;;-0.38;76.88
74403;BME280;62837;51.082;13.744;2022-12-17T11:20:52;101413.98;;;-0.38;76.61
74403;BME280;62837;51.082;13.744;2022-12-17T11:23:46;101414.12;;;-0.39;76.84
74403;BME280;62837;51.082;13.744;2022-12-17T11:26:38;101420.17;;;-0.38;76.70
74403;BME280;62837;51.082;13.744;2022-12-17T11:29:30;101418.17;;;-0.35;77.08
74403;BME280;62837;51.082;13.744;2022-12-17T11:35:37;101420.69;;;-0.25;76.80
74403;BME280;62837;51.082;13.744;2022-12-17T11:38:35;101420.17;;;-0.20;76.33
74403;BME280;62837;51.082;13.744;2022-12-17T11:41:33;101422.86;;;-0.15;76.49
74403;BME280;62837;51.082;13.744;2022-12-17T11:44:32;101418.30;;;-0.16;76.17
74403;BME280;62837;51.082;13.744;2022-12-17T11:47:31;101419.25;;;-0.13;76.54
74403;BME280;62837;51.082;13.744;2022-12-17T11:50:33;101419.17;;;-0.14;76.48
74403;BME280;62837;51.082;13.744;2022-12-17T11:53:29;101421.35;;;-0.09;76.73
74403;BME280;62837;51.082;13.744;2022-12-17T11:56:25;101424.30;;;-0.05;76.52
74403;BME280;62837;51.082;13.744;2022-12-17T11:59:24;101426.97;;;-0.08;76.10
74403;BME280;62837;51.082;13.744;2022-12-17T12:02:36;101432.34;;;-0.11;75.99
74403;BME280;62837;51.082;13.744;2022-12-17T12:05:39;101432.40;;;-0.13;75.98
74403;BME280;62837;51.082;13.744;2022-12-17T12:08:34;101432.74;;;-0.11;75.97
74403;BME280;62837;51.082;13.744;2022-12-17T12:11:32;101440.71;;;-0.11;76.21
74403;BME280;62837;51.082;13.744;2022-12-17T12:14:30;101438.08;;;-0.12;76.00
74403;BME280;62837;51.082;13.744;2022-12-17T12:17:34;101437.13;;;-0.12;75.93
74403;BME280;62837;51.082;13.744;2022-12-17T12:20:37;101444.65;;;-0.16;75.72
74403;BME280;62837;51.082;13.744;2022-12-17T12:23:38;101443.29;;;-0.20;75.92
74403;BME280;62837;51.082;13.744;2022-12-17T12:26:35;101445.21;;;-0.18;76.36
74403;BME280;62837;51.082;13.744;2022-12-17T12:29:31;101448.52;;;-0.12;75.75
74403;BME280;62837;51.082;13.744;2022-12-17T12:32:24;101447.23;;;-0.10;75.49
74403;BME280;62837;51.082;13.744;2022-12-17T12:35:18;101451.33;;;-0.08;75.59
74403;BME280;62837;51.082;13.744;2022-12-17T12:38:14;101451.19;;;-0.10;75.54
74403;BME280;62837;51.082;13.744;2022-12-17T12:41:17;101454.45;;;-0.07;75.72
74403;BME280;62837;51.082;13.744;2022-12-17T12:44:07;101455.67;;;-0.05;75.55
74403;BME280;62837;51.082;13.744;2022-12-17T12:47:05;101458.13;;;-0.08;75.53
74403;BME280;62837;51.082;13.744;2022-12-17T12:49:59;101461.27;;;-0.08;75.45
74403;BME280;62837;51.082;13.744;2022-12-17T12:52:50;101464.52;;;-0.13;75.04
74403;BME280;62837;51.082;13.744;2022-12-17T12:55:41;101465.20;;;-0.13;75.29
74403;BME280;62837;51.082;13.744;2022-12-17T12:58:31;101468.60;;;-0.08;75.41
74403;BME280;62837;51.082;13.744;2022-12-17T13:01:21;101466.63;;;-0.01;75.54
74403;BME280;62837;51.082;13.744;2022-12-17T13:04:27;101469.30;;;0.01;75.36
74403;BME280;62837;51.082;13.744;2022-12-17T13:07:24;101472.73;;;0.03;75.11
74403;BME280;62837;51.082;13.744;2022-12-17T13:09:57;101475.56;;;0.01;75.38
74403;BME280;62837;51.082;13.744;2022-12-17T13:12:32;101479.31;;;0.05;75.68
74403;BME280;62837;51.082;13.744;2022-12-17T13:15:17;101478.98;;;0.06;74.92
74403;BME280;62837;51.082;13.744;2022-12-17T13:18:00;101478.89;;;0.04;75.24
74403;BME280;62837;51.082;13.744;2022-12-17T13:20:34;101479.69;;;0.05;75.01
74403;BME280;62837;51.082;13.744;2022-12-17T13:23:30;101485.73;;;0.02;74.78
74403;BME280;62837;51.082;13.744;2022-12-17T13:26:22;101485.46;;;-0.00;74.84
74403;BME280;62837;51.082;13.744;2022-12-17T13:29:12;101486.72;;;0.03;74.84
74403;BME280;62837;51.082;13.744;2022-12-17T13:32:04;101491.75;;;0.05;73.99
74403;BME280;62837;51.082;13.744;2022-12-17T13:34:45;101495.16;;;0.03;73.97
74403;BME280;62837;51.082;13.744;2022-12-17T13:37:28;101494.45;;;-0.00;73.61
74403;BME280;62837;51.082;13.744;2022-12-17T13:40:12;101497.02;;;-0.06;73.51
74403;BME280;62837;51.082;13.744;2022-12-17T13:42:47;101505.01;;;-0.11;73.40
74403;BME280;62837;51.082;13.744;2022-12-17T13:45:20;101505.83;;;-0.19;73.38
74403;BME280;62837;51.082;13.744;2022-12-17T13:47:55;101512.88;;;-0.26;73.48
74403;BME280;62837;51.082;13.744;2022-12-17T13:50:28;101513.34;;;-0.28;73.38
74403;BME280;62837;51.082;13.744;2022-12-17T13:53:10;101511.48;;;-0.28;73.58
74403;BME280;62837;51.082;13.744;2022-12-17T13:55:48;101519.16;;;-0.27;73.53
74403;BME280;62837;51.082;13.744;2022-12-17T13:58:27;101521.46;;;-0.27;73.56
74403;BME280;62837;51.082;13.744;2022-12-17T14:01:09;101524.92;;;-0.29;73.68
74403;BME280;62837;51.082;13.744;2022-12-17T14:03:47;101524.28;;;-0.30;73.65
74403;BME280;62837;51.082;13.744;2022-12-17T14:06:36;101528.45;;;-0.33;74.08
74403;BME280;62837;51.082;13.744;2022-12-17T14:09:11;101532.11;;;-0.35;73.91
74403;BME280;62837;51.082;13.744;2022-12-17T14:11:44;101536.17;;;-0.33;74.41
74403;BME280;62837;51.082;13.744;2022-12-17T14:14:34;101541.75;;;-0.31;74.29
74403;BME280;62837;51.082;13.744;2022-12-17T14:17:04;101549.41;;;-0.30;74.32
74403;BME280;62837;51.082;13.744;2022-12-17T14:19:37;101552.02;;;-0.28;73.97
74403;BME280;62837;51.082;13.744;2022-12-17T14:22:09;101563.44;;;-0.22;74.17
74403;BME280;62837;51.082;13.744;2022-12-17T14:24:46;101562.20;;;-0.20;73.04
74403;BME280;62837;51.082;13.744;2022-12-17T14:27:24;101564.54;;;-0.24;73.02
74403;BME280;62837;51.082;13.744;2022-12-17T14:29:55;101567.40;;;-0.25;73.40
74403;BME280;62837;51.082;13.744;2022-12-17T14:32:31;101570.42;;;-0.28;73.79
74403;BME280;62837;51.082;13.744;2022-12-17T14:35:04;101573.95;;;-0.27;74.49
74403;BME280;62837;51.082;13.744;2022-12-17T14:37:35;101582.69;;;-0.25;74.47
74403;BME280;62837;51.082;13.744;2022-12-17T14:40:08;101582.20;;;-0.24;74.36